Time;durP1;ratioP1;P1;durP2;ratioP2;P2;SDS_P1;SDS_P2;PMS_P1;PMS_P2;Temp;Humidity;BMP_temperature;BMP_pressure;BME280_temperature;BME280_humidity;BME280_pressure;Samples;Min_cycle;Max_cycle;Signal;HPM_P1;HPM_P2
2023/03/15 00:01:53;;;;;;;16.60;9.00;;;;;;;8.66;58.78;101138.69;107080;1267;22544;-49
2023/03/15 00:04:23;;;;;;;13.50;8.50;;;;;;;8.64;58.81;101141.11;105993;1270;1003726;-49
2023/03/15 00:06:51;;;;;;;13.80;8.20;;;;;;;8.61;58.88;101148.75;107159;1267;25404;-49
2023/03/15 00:09:18;;;;;;;13.40;8.30;;;;;;;8.59;58.88;101148.59;107096;1267;25424;-49
2023/03/15 00:11:53;;;;;;;14.60;8.50;;;;;;;8.57;58.95;101139.44;107130;1267;25328;-49
2023/03/15 00:14:20;;;;;;;13.60;8.30;;;;;;;8.55;58.64;101133.23;106920;1267;22527;-50
2023/03/15 00:16:47;;;;;;;8.90;7.40;;;;;;;8.52;58.24;101135.33;107037;1266;23737;-50
2023/03/15 00:19:18;;;;;;;8.50;6.70;;;;;;;8.48;58.22;101124.98;107118;1274;25314;-50
2023/03/15 00:21:45;;;;;;;10.60;7.60;;;;;;;8.46;58.21;101127.43;107051;1267;25349;-49
2023/03/15 00:24:12;;;;;;;12.50;7.70;;;;;;;8.44;58.22;101124.83;106675;1267;25397;-49
2023/03/15 00:26:39;;;;;;;12.80;9.00;;;;;;;8.44;58.41;101121.71;107061;1267;25357;-49
2023/03/15 00:29:08;;;;;;;13.00;8.70;;;;;;;8.43;58.57;101119.84;107036;1267;25377;-49
2023/03/15 00:31:36;;;;;;;12.00;7.80;;;;;;;8.43;58.83;101119.84;107048;1267;25510;-49
2023/03/15 00:34:03;;;;;;;11.80;7.80;;;;;;;8.44;59.24;101120.52;107106;1267;25346;-49
2023/03/15 00:36:31;;;;;;;10.60;7.20;;;;;;;8.46;59.76;101115.65;107120;1267;26494;-49
2023/03/15 00:38:58;;;;;;;12.70;8.00;;;;;;;8.52;60.84;101111.82;106609;1267;25396;-50
2023/03/15 00:41:25;;;;;;;11.60;7.60;;;;;;;8.58;61.38;101111.94;106848;1273;24259;-49
2023/03/15 00:43:57;;;;;;;10.70;8.30;;;;;;;8.66;61.90;101104.26;106092;1273;1003033;-50
2023/03/15 00:46:24;;;;;;;9.70;7.70;;;;;;;8.74;62.22;101092.25;107050;1268;25497;-49
2023/03/15 00:48:52;;;;;;;11.80;8.30;;;;;;;8.82;62.39;101089.59;107191;1267;22648;-48
2023/03/15 00:51:20;;;;;;;13.40;7.50;;;;;;;8.91;62.69;101088.64;107066;1267;25516;-48
2023/03/15 00:53:49;;;;;;;9.90;7.00;;;;;;;8.98;62.52;101089.42;106780;1270;22524;-52
2023/03/15 00:56:26;;;;;;;11.20;7.50;;;;;;;9.07;62.65;101085.54;106981;1274;25379;-48
2023/03/15 00:58:54;;;;;;;14.90;7.90;;;;;;;9.15;62.53;101081.46;106880;1267;22524;-49
2023/03/15 01:01:26;;;;;;;12.10;7.10;;;;;;;9.21;62.48;101072.91;107009;1267;25371;-49
2023/03/15 01:03:54;;;;;;;10.00;7.20;;;;;;;9.28;62.52;101074.57;107158;1267;24395;-50
2023/03/15 01:06:25;;;;;;;8.40;6.10;;;;;;;9.35;62.42;101074.15;107013;1267;24228;-50
2023/03/15 01:08:56;;;;;;;11.60;6.80;;;;;;;9.40;62.16;101068.20;106458;1267;1003504;-50
2023/03/15 01:11:25;;;;;;;8.30;6.20;;;;;;;9.44;62.02;101066.76;106161;1267;1002924;-50
2023/03/15 01:13:52;;;;;;;11.80;7.10;;;;;;;9.49;61.75;101065.83;106288;1270;1002935;-50
2023/03/15 01:16:20;;;;;;;8.70;6.30;;;;;;;9.55;61.42;101060.56;107051;1267;25419;-48
2023/03/15 01:18:50;;;;;;;8.40;6.00;;;;;;;9.59;61.15;101056.86;107162;1266;25345;-50
2023/03/15 01:21:19;;;;;;;10.70;5.90;;;;;;;9.64;61.06;101054.90;107004;1267;22740;-49
2023/03/15 01:23:47;;;;;;;11.90;5.80;;;;;;;9.68;60.82;101057.62;106821;1270;24388;-49
2023/03/15 01:26:15;;;;;;;8.80;6.30;;;;;;;9.73;60.50;101061.88;107171;1268;25491;-50
2023/03/15 01:28:43;;;;;;;9.50;5.90;;;;;;;9.76;60.13;101058.39;107001;1267;22550;-48
2023/03/15 01:31:16;;;;;;;9.80;5.60;;;;;;;9.79;59.82;101055.21;107121;1272;26234;-48
2023/03/15 01:33:45;;;;;;;7.10;4.40;;;;;;;9.82;59.52;101060.02;106750;1273;25353;-48
2023/03/15 01:36:13;;;;;;;5.90;4.90;;;;;;;9.85;59.34;101056.01;106687;1271;22555;-48
2023/03/15 01:38:40;;;;;;;11.10;5.10;;;;;;;9.87;59.18;101054.06;106000;1269;1003066;-48
2023/03/15 01:41:10;;;;;;;7.70;5.00;;;;;;;9.90;59.01;101052.11;106760;1273;25461;-48
2023/03/15 01:43:37;;;;;;;9.80;5.70;;;;;;;9.92;58.95;101050.02;106033;1271;1002991;-48
2023/03/15 01:46:05;;;;;;;7.50;4.80;;;;;;;9.94;58.98;101048.43;106384;1276;25488;-48
2023/03/15 01:48:43;;;;;;;8.40;4.70;;;;;;;9.96;59.11;101050.30;106777;1270;23314;-48
2023/03/15 01:51:21;;;;;;;8.70;5.00;;;;;;;9.97;59.00;101055.67;106808;1270;22569;-49
2023/03/15 01:54:10;;;;;;;6.70;5.20;;;;;;;9.97;58.98;101051.50;106380;1270;25345;-49
2023/03/15 01:56:45;;;;;;;8.70;5.10;;;;;;;9.98;59.07;101051.30;106593;1269;25377;-49
2023/03/15 01:59:16;;;;;;;9.20;5.00;;;;;;;9.99;58.91;101052.16;106716;1270;24504;-50
2023/03/15 02:01:44;;;;;;;8.30;5.70;;;;;;;10.00;59.02;101055.27;106717;1275;22754;-49
2023/03/15 02:04:16;;;;;;;12.10;5.60;;;;;;;10.02;59.08;101048.65;106863;1272;25322;-48
2023/03/15 02:06:45;;;;;;;8.50;5.50;;;;;;;10.03;59.03;101047.60;106858;1271;22532;-48
2023/03/15 02:09:15;;;;;;;8.80;4.80;;;;;;;10.04;58.94;101047.07;106994;1268;25559;-48
2023/03/15 02:11:42;;;;;;;10.70;5.50;;;;;;;10.04;58.72;101048.27;107131;1266;22612;-48
2023/03/15 02:14:13;;;;;;;10.40;5.90;;;;;;;10.05;58.76;101047.39;106867;1267;25398;-48
2023/03/15 02:16:43;;;;;;;8.00;5.20;;;;;;;10.06;58.85;101046.34;106770;1267;24325;-50
2023/03/15 02:19:17;;;;;;;8.70;5.40;;;;;;;10.06;58.77;101042.69;106942;1269;22531;-48
2023/03/15 02:21:54;;;;;;;11.10;5.60;;;;;;;10.07;58.63;101049.28;106839;1267;22542;-48
2023/03/15 02:24:34;;;;;;;9.00;4.90;;;;;;;10.07;58.55;101054.13;107140;1267;25379;-48
2023/03/15 02:27:02;;;;;;;8.20;4.90;;;;;;;10.07;58.61;101053.77;107070;1267;25348;-48
2023/03/15 02:29:29;;;;;;;6.10;4.70;;;;;;;10.07;58.68;101045.81;106874;1267;25378;-48
2023/03/15 02:32:04;;;;;;;6.30;4.40;;;;;;;10.07;58.58;101037.14;106288;1252;1003264;-49
2023/03/15 02:34:32;;;;;;;8.20;4.30;;;;;;;10.07;58.59;101047.02;106364;1269;1003743;-48
2023/03/15 02:37:01;;;;;;;6.10;4.30;;;;;;;10.07;58.47;101048.23;106891;1270;22530;-49
2023/03/15 02:39:28;;;;;;;5.40;3.70;;;;;;;10.07;58.50;101045.80;107003;1269;25491;-48
2023/03/15 02:41:57;;;;;;;6.10;3.50;;;;;;;10.07;58.45;101039.73;107034;1267;25454;-50
2023/03/15 02:44:37;;;;;;;5.10;3.70;;;;;;;10.07;58.37;101045.29;107040;1267;25348;-49
2023/03/15 02:47:17;;;;;;;;;;;;;;;10.07;58.38;101040.27;106874;1273;25461;-50
2023/03/15 02:49:48;;;;;;;8.00;3.80;;;;;;;10.07;58.39;101034.19;107033;1267;22639;-49
2023/03/15 02:52:15;;;;;;;5.60;2.90;;;;;;;10.06;58.57;101031.42;106840;1271;25356;-51
2023/03/15 02:54:42;;;;;;;8.80;3.30;;;;;;;10.06;58.54;101030.22;107074;1267;24361;-49
2023/03/15 02:57:15;;;;;;;11.40;3.00;;;;;;;10.05;58.41;101026.77;107083;1269;25379;-49
2023/03/15 02:59:42;;;;;;;;;;;;;;;10.06;58.44;101034.73;107136;1267;22513;-49
2023/03/15 03:02:12;;;;;;;4.10;2.40;;;;;;;10.05;58.31;101033.19;107037;1267;22743;-49
2023/03/15 03:04:40;;;;;;;6.60;2.50;;;;;;;10.06;58.31;101030.22;106812;1267;22788;-49
2023/03/15 03:07:08;;;;;;;9.30;2.70;;;;;;;10.07;58.38;101032.45;106948;1272;25521;-49
2023/03/15 03:09:42;;;;;;;6.40;2.10;;;;;;;10.08;58.57;101045.27;106743;1272;25490;-49
2023/03/15 03:12:10;;;;;;;4.10;2.10;;;;;;;10.08;58.61;101040.23;106832;1269;25369;-48
2023/03/15 03:14:38;;;;;;;3.40;1.60;;;;;;;10.08;58.82;101045.78;106910;1269;25344;-48
2023/03/15 03:17:09;;;;;;;2.70;1.90;;;;;;;10.08;58.68;101045.61;106929;1269;25408;-49
2023/03/15 03:19:38;;;;;;;4.00;2.10;;;;;;;10.08;58.78;101038.33;106778;1270;22521;-48
2023/03/15 03:22:05;;;;;;;4.70;1.60;;;;;;;10.08;58.97;101030.35;106768;1270;25412;-49
2023/03/15 03:24:33;;;;;;;4.40;1.70;;;;;;;10.09;59.20;101035.02;106808;1273;25514;-48
2023/03/15 03:27:00;;;;;;;2.50;1.80;;;;;;;10.11;59.48;101032.25;106382;1260;24432;-48
2023/03/15 03:29:29;;;;;;;3.30;1.30;;;;;;;10.13;59.53;101031.02;106753;1269;25485;-48
2023/03/15 03:31:59;;;;;;;4.80;1.80;;;;;;;10.15;59.69;101032.19;106782;1273;25359;-48
2023/03/15 03:34:30;;;;;;;2.30;1.30;;;;;;;10.17;59.76;101032.86;106733;1272;25369;-49
2023/03/15 03:36:57;;;;;;;3.00;1.40;;;;;;;10.18;59.72;101031.27;106022;1272;1003663;-49
2023/03/15 03:39:38;;;;;;;2.80;1.30;;;;;;;10.21;59.41;101034.52;106779;1270;25430;-49
2023/03/15 03:42:06;;;;;;;4.90;1.60;;;;;;;10.22;59.33;101032.42;107013;1267;25401;-50
2023/03/15 03:44:33;;;;;;;2.40;1.40;;;;;;;10.22;59.26;101026.36;106885;1266;24205;-50
2023/03/15 03:47:01;;;;;;;3.60;1.30;;;;;;;10.23;59.13;101020.46;107148;1269;22534;-49
2023/03/15 03:49:28;;;;;;;4.00;1.30;;;;;;;10.24;59.05;101021.30;107111;1267;25388;-48
2023/03/15 03:52:01;;;;;;;2.80;1.40;;;;;;;10.26;59.22;101018.14;107186;1267;25558;-50
2023/03/15 03:54:28;;;;;;;3.40;1.60;;;;;;;10.27;59.38;101012.92;106810;1271;25380;-49
2023/03/15 03:56:57;;;;;;;1.60;1.40;;;;;;;10.28;59.37;101010.84;107102;1267;24263;-50
2023/03/15 03:59:28;;;;;;;;;;;;;;;10.28;59.19;101008.23;107074;1267;23213;-50
2023/03/15 04:02:00;;;;;;;4.20;1.40;;;;;;;10.30;58.97;101005.77;106795;1267;25390;-49
2023/03/15 04:04:29;;;;;;;9.20;1.60;;;;;;;10.31;59.05;101006.63;107016;1269;22527;-49
2023/03/15 04:06:56;;;;;;;1.80;1.40;;;;;;;10.32;59.24;101006.44;107024;1267;24291;-49
2023/03/15 04:09:36;;;;;;;2.10;1.30;;;;;;;10.33;59.24;101007.46;107178;1267;25488;-49
2023/03/15 04:12:10;;;;;;;4.90;1.70;;;;;;;10.35;59.39;101008.98;107158;1267;25476;-49
2023/03/15 04:14:39;;;;;;;1.60;1.50;;;;;;;10.37;59.64;101011.03;106844;1271;22526;-49
2023/03/15 04:17:09;;;;;;;5.70;1.50;;;;;;;10.39;59.48;101011.52;107012;1268;25479;-49
2023/03/15 04:19:37;;;;;;;1.90;1.30;;;;;;;10.40;59.43;101016.87;107128;1267;25395;-49
2023/03/15 04:22:06;;;;;;;2.20;1.30;;;;;;;10.40;59.52;101022.41;107098;1267;23118;-49
2023/03/15 04:24:52;;;;;;;2.40;1.40;;;;;;;10.41;59.63;101025.35;107038;1267;25379;-49
2023/03/15 04:27:44;;;;;;;;;;;;;;;10.42;59.69;101027.40;106884;1266;25328;-48
2023/03/15 04:30:34;;;;;;;3.20;1.50;;;;;;;10.43;59.92;101030.17;106720;1270;26495;-48
2023/03/15 04:33:16;;;;;;;3.40;1.60;;;;;;;10.43;60.21;101033.29;106764;1271;25435;-49
2023/03/15 04:35:57;;;;;;;3.50;1.20;;;;;;;10.44;60.54;101034.66;106704;1272;25412;-49
2023/03/15 04:38:46;;;;;;;5.40;1.70;;;;;;;10.46;60.75;101030.47;106750;1258;25370;-49
2023/03/15 04:41:43;;;;;;;2.10;1.60;;;;;;;10.48;61.20;101025.06;106767;1270;22895;-49
2023/03/15 04:44:30;;;;;;;3.10;1.60;;;;;;;10.51;61.51;101022.75;106395;1270;24213;-49
2023/03/15 04:47:23;;;;;;;1.80;1.70;;;;;;;10.54;61.69;101018.20;105869;1284;25341;-49
2023/03/15 04:50:05;;;;;;;7.50;1.60;;;;;;;10.56;61.71;101015.73;106324;1277;25337;-49
2023/03/15 04:52:47;;;;;;;4.70;1.70;;;;;;;10.58;61.76;101017.77;106285;1278;25351;-49
2023/03/15 04:55:52;;;;;;;7.40;2.50;;;;;;;10.59;61.73;101011.86;106115;1280;25370;-49
2023/03/15 04:58:43;;;;;;;5.60;2.20;;;;;;;10.61;61.84;101015.30;106447;1276;25383;-49
2023/03/15 05:01:34;;;;;;;3.60;1.80;;;;;;;10.62;61.85;101018.40;106456;1273;25349;-49
2023/03/15 05:04:25;;;;;;;3.80;2.00;;;;;;;10.63;61.90;101018.05;106539;1277;25417;-49
2023/03/15 05:07:11;;;;;;;2.70;1.60;;;;;;;10.64;61.99;101014.89;106355;1273;26601;-49
2023/03/15 05:09:49;;;;;;;5.60;2.20;;;;;;;10.66;62.05;101012.95;106290;1276;25390;-49
2023/03/15 05:12:34;;;;;;;4.60;1.80;;;;;;;10.68;62.20;101003.89;106665;1274;25336;-49
2023/03/15 05:15:22;;;;;;;5.30;2.20;;;;;;;10.69;62.32;101001.77;106584;1280;25357;-49
2023/03/15 05:18:03;;;;;;;4.10;1.70;;;;;;;10.71;62.34;100999.65;106736;1276;25397;-49
2023/03/15 05:21:00;;;;;;;6.30;2.10;;;;;;;10.76;62.57;100993.16;106319;1272;25649;-49
2023/03/15 05:24:03;;;;;;;8.20;2.50;;;;;;;10.82;62.64;100990.27;106242;1275;25525;-49
2023/03/15 05:26:36;;;;;;;5.10;1.70;;;;;;;10.88;62.77;100990.32;106967;1267;22523;-49
2023/03/15 05:29:15;;;;;;;3.90;2.10;;;;;;;10.92;62.70;100996.30;107164;1267;25404;-49
2023/03/15 05:32:06;;;;;;;3.60;1.70;;;;;;;10.99;62.63;101001.40;107108;1267;25389;-49
2023/03/15 05:34:57;;;;;;;4.60;2.10;;;;;;;11.04;62.64;101003.89;106969;1267;25351;-48
2023/03/15 05:37:49;;;;;;;4.40;2.00;;;;;;;11.10;62.55;101003.77;107094;1267;22530;-48
2023/03/15 05:40:32;;;;;;;2.90;1.80;;;;;;;11.14;62.56;100993.08;107104;1270;25410;-48
2023/03/15 05:43:20;;;;;;;3.30;1.60;;;;;;;11.20;62.59;100982.36;106799;1270;22540;-48
2023/03/15 05:46:09;;;;;;;2.70;1.50;;;;;;;11.27;62.58;100979.45;107125;1267;25348;-48
2023/03/15 05:48:54;;;;;;;3.90;1.70;;;;;;;11.34;62.46;100974.79;107088;1266;25328;-48
2023/03/15 05:51:36;;;;;;;3.70;1.70;;;;;;;11.38;62.18;100976.95;107092;1267;25549;-48
2023/03/15 05:54:10;;;;;;;3.10;1.40;;;;;;;11.42;62.03;100976.16;106872;1267;22646;-48
2023/03/15 05:56:50;;;;;;;3.40;1.80;;;;;;;11.45;61.96;100971.94;106954;1267;25478;-48
2023/03/15 05:59:44;;;;;;;1.90;1.20;;;;;;;11.49;61.85;100963.88;107146;1267;25392;-48
2023/03/15 06:02:20;;;;;;;2.80;1.40;;;;;;;11.52;61.80;100962.42;106770;1267;25851;-48
2023/03/15 06:05:05;;;;;;;2.60;1.40;;;;;;;11.55;61.78;100968.08;107058;1267;25357;-48
2023/03/15 06:07:33;;;;;;;2.50;1.60;;;;;;;11.59;61.98;100970.59;107071;1274;25342;-48
2023/03/15 06:10:08;;;;;;;3.20;1.30;;;;;;;11.71;62.73;100970.51;107120;1268;25367;-48
2023/03/15 06:12:35;;;;;;;5.60;2.00;;;;;;;11.93;62.67;100976.95;107022;1267;22533;-48
2023/03/15 06:15:04;;;;;;;4.00;1.50;;;;;;;12.19;62.01;100987.80;106874;1272;25363;-48
2023/03/15 06:17:33;;;;;;;4.10;2.10;;;;;;;12.40;61.25;100988.46;106855;1267;22535;-48
2023/03/15 06:20:00;;;;;;;7.00;2.00;;;;;;;12.56;60.79;100992.91;106819;1267;25370;-48
2023/03/15 06:22:28;;;;;;;3.70;1.30;;;;;;;12.69;60.25;101000.94;107205;1267;22526;-49
2023/03/15 06:24:57;;;;;;;2.60;1.50;;;;;;;12.78;59.97;101007.49;107054;1266;24250;-49
2023/03/15 06:27:25;;;;;;;4.70;1.40;;;;;;;12.83;59.56;101011.53;107087;1270;25342;-48
2023/03/15 06:29:55;;;;;;;3.30;1.20;;;;;;;12.85;59.23;101013.04;107080;1268;25428;-48
2023/03/15 06:32:22;;;;;;;4.00;1.50;;;;;;;12.84;59.14;101010.96;106913;1270;24332;-49
2023/03/15 06:34:49;;;;;;;4.20;1.30;;;;;;;12.81;59.02;101014.55;106999;1268;25250;-48
2023/03/15 06:37:18;;;;;;;6.80;1.80;;;;;;;12.76;59.14;101018.33;106526;1274;22536;-48
2023/03/15 06:39:59;;;;;;;3.90;1.40;;;;;;;12.70;58.98;101018.66;107103;1268;25418;-48
2023/03/15 06:42:27;;;;;;;3.20;1.30;;;;;;;12.63;58.88;101017.11;106799;1267;25404;-48
2023/03/15 06:44:54;;;;;;;1.60;1.20;;;;;;;12.57;58.60;101015.00;107032;1267;22526;-48
2023/03/15 06:47:22;;;;;;;2.00;1.10;;;;;;;12.50;57.94;101016.06;106993;1272;25339;-48
2023/03/15 06:49:50;;;;;;;1.00;0.90;;;;;;;12.42;57.50;101017.82;106874;1267;25568;-48
2023/03/15 06:52:18;;;;;;;1.80;1.20;;;;;;;12.36;57.32;101010.15;107089;1267;25366;-48
2023/03/15 06:54:45;;;;;;;2.30;1.10;;;;;;;12.32;57.21;101006.79;107190;1266;22535;-48
2023/03/15 06:57:13;;;;;;;2.20;1.20;;;;;;;12.28;56.83;101014.00;107161;1268;25366;-48
2023/03/15 06:59:40;;;;;;;1.60;1.10;;;;;;;12.25;56.55;101013.37;107101;1267;25441;-48
2023/03/15 07:02:13;;;;;;;3.80;1.20;;;;;;;12.22;56.53;101013.98;107164;1267;25351;-48
2023/03/15 07:04:40;;;;;;;3.80;1.70;;;;;;;12.19;56.61;101017.02;107078;1267;22636;-48
2023/03/15 07:07:07;;;;;;;3.60;1.10;;;;;;;12.14;56.59;101015.05;107040;1267;25339;-48
2023/03/15 07:09:35;;;;;;;4.50;1.40;;;;;;;12.08;56.81;101012.93;106747;1274;26562;-48
2023/03/15 07:12:02;;;;;;;3.50;1.60;;;;;;;12.02;56.84;101016.20;107182;1267;22533;-48
2023/03/15 07:14:36;;;;;;;2.90;1.40;;;;;;;11.97;56.88;101015.11;106934;1267;25460;-48
2023/03/15 07:17:03;;;;;;;3.90;1.60;;;;;;;11.93;56.57;101018.52;107130;1267;25396;-47
2023/03/15 07:19:31;;;;;;;3.20;1.30;;;;;;;11.90;56.54;101023.63;107089;1266;23522;-48
2023/03/15 07:21:58;;;;;;;3.40;1.70;;;;;;;11.88;56.67;101025.40;106855;1272;25546;-48
2023/03/15 07:24:27;;;;;;;6.90;2.10;;;;;;;11.86;56.60;101026.14;106778;1274;22547;-47
2023/03/15 07:26:55;;;;;;;3.70;1.60;;;;;;;11.83;56.93;101028.99;107071;1267;22591;-48
2023/03/15 07:29:23;;;;;;;3.70;1.30;;;;;;;11.80;57.09;101027.49;107131;1269;25331;-48
2023/03/15 07:31:51;;;;;;;1.70;1.60;;;;;;;11.79;57.30;101026.30;107069;1268;25538;-48
2023/03/15 07:34:18;;;;;;;2.30;1.80;;;;;;;11.80;57.57;101034.79;106230;1268;1003019;-48
2023/03/15 07:36:46;;;;;;;3.00;1.70;;;;;;;11.81;57.61;101038.27;107150;1267;25488;-48
2023/03/15 07:39:14;;;;;;;3.70;1.90;;;;;;;11.82;57.70;101041.01;106837;1267;25431;-48
2023/03/15 07:41:43;;;;;;;3.20;1.70;;;;;;;11.84;57.72;101046.54;107044;1267;25409;-48
2023/03/15 07:44:19;;;;;;;2.80;1.80;;;;;;;11.86;57.82;101050.30;107132;1267;23469;-49
2023/03/15 07:46:47;;;;;;;2.80;1.70;;;;;;;11.87;57.95;101046.11;107124;1267;24266;-48
2023/03/15 07:49:14;;;;;;;2.40;1.40;;;;;;;11.89;57.98;101049.21;106850;1271;25375;-48
2023/03/15 07:51:41;;;;;;;4.80;1.90;;;;;;;11.90;58.16;101050.23;106832;1262;25367;-48
2023/03/15 07:54:10;;;;;;;4.50;2.20;;;;;;;11.91;58.24;101046.53;107139;1266;25367;-48
2023/03/15 07:56:39;;;;;;;4.10;1.70;;;;;;;11.92;58.18;101050.16;107030;1266;23363;-49
2023/03/15 07:59:06;;;;;;;4.50;1.70;;;;;;;11.93;58.33;101039.02;106989;1271;24293;-48
2023/03/15 08:01:33;;;;;;;3.70;1.60;;;;;;;11.95;58.47;101033.08;107135;1268;25418;-48
2023/03/15 08:04:00;;;;;;;4.10;2.10;;;;;;;11.97;58.60;101029.00;106729;1267;25412;-48
2023/03/15 08:06:27;;;;;;;3.50;1.60;;;;;;;11.99;58.50;101027.20;107021;1267;25406;-48
2023/03/15 08:08:56;;;;;;;1.80;1.60;;;;;;;12.02;58.48;101024.89;107043;1267;25416;-48
2023/03/15 08:11:23;;;;;;;4.60;1.60;;;;;;;12.06;58.47;101025.85;106719;1267;25342;-49
2023/03/15 08:13:51;;;;;;;2.20;1.60;;;;;;;12.10;58.40;101029.91;106842;1267;24199;-48
2023/03/15 08:16:18;;;;;;;3.70;1.80;;;;;;;12.14;58.35;101030.70;106711;1267;25399;-48
2023/03/15 08:18:45;;;;;;;5.00;2.20;;;;;;;12.17;58.37;101028.70;107148;1267;25247;-48
2023/03/15 08:21:13;;;;;;;8.40;1.90;;;;;;;12.21;58.46;101026.52;107154;1267;25470;-48
2023/03/15 08:23:41;;;;;;;3.10;1.90;;;;;;;12.25;58.54;101023.30;107117;1267;25342;-48
2023/03/15 08:26:08;;;;;;;7.10;2.10;;;;;;;12.30;58.62;101021.10;107089;1267;26500;-48
2023/03/15 08:28:35;;;;;;;12.10;3.40;;;;;;;12.34;58.60;101016.11;107161;1267;25342;-48
2023/03/15 08:31:07;;;;;;;4.90;1.70;;;;;;;12.38;58.68;101018.30;107072;1267;22531;-48
2023/03/15 08:33:34;;;;;;;3.00;1.70;;;;;;;12.38;58.63;101013.58;107145;1267;23129;-48
2023/03/15 08:36:04;;;;;;;4.70;1.70;;;;;;;12.40;58.60;101017.88;106797;1267;22622;-48
2023/03/15 08:38:32;;;;;;;2.00;1.60;;;;;;;12.42;58.68;101018.52;106868;1273;25339;-48
2023/03/15 08:41:00;;;;;;;2.50;1.30;;;;;;;12.44;58.77;101016.04;107035;1267;25323;-48
2023/03/15 08:43:27;;;;;;;3.50;1.60;;;;;;;12.47;58.71;101018.93;107045;1267;23201;-49
2023/03/15 08:45:55;;;;;;;2.00;1.30;;;;;;;12.47;58.64;101011.25;107094;1268;22557;-48
2023/03/15 08:48:28;;;;;;;5.20;1.80;;;;;;;12.48;58.45;101014.20;107063;1267;25416;-48
2023/03/15 08:51:05;;;;;;;2.30;1.50;;;;;;;12.48;58.43;101014.55;107068;1268;25335;-48
2023/03/15 08:53:33;;;;;;;1.30;1.20;;;;;;;12.49;58.29;101017.46;106890;1267;22511;-48
2023/03/15 08:56:00;;;;;;;4.20;1.30;;;;;;;12.48;58.44;101013.68;106958;1271;334703;-48
2023/03/15 08:58:27;;;;;;;1.80;1.40;;;;;;;12.50;58.48;101013.29;106871;1271;25404;-48
2023/03/15 09:00:56;;;;;;;2.30;1.30;;;;;;;12.53;58.43;101017.73;107022;1268;26586;-48
2023/03/15 09:03:25;;;;;;;3.00;1.60;;;;;;;12.56;58.51;101012.95;106857;1267;22724;-48
2023/03/15 09:05:59;;;;;;;2.80;1.60;;;;;;;12.56;58.53;101009.80;107114;1269;24203;-48
2023/03/15 09:08:26;;;;;;;3.30;1.30;;;;;;;12.56;58.59;101012.41;107162;1268;25338;-48
2023/03/15 09:10:55;;;;;;;2.20;1.30;;;;;;;12.54;58.59;101009.15;106804;1275;22587;-48
2023/03/15 09:13:23;;;;;;;2.80;1.10;;;;;;;12.52;58.65;101005.04;106992;1269;22636;-48
2023/03/15 09:15:52;;;;;;;2.10;1.20;;;;;;;12.52;58.66;101002.27;107173;1270;25519;-48
2023/03/15 09:18:20;;;;;;;3.30;1.80;;;;;;;12.52;58.91;100997.57;107161;1268;25514;-48
2023/03/15 09:20:47;;;;;;;2.10;1.60;;;;;;;12.54;59.06;100994.88;107074;1269;25338;-48
2023/03/15 09:23:18;;;;;;;2.50;2.00;;;;;;;12.59;59.13;100993.71;107013;1271;25489;-48
2023/03/15 09:25:45;;;;;;;6.90;1.40;;;;;;;12.64;58.96;100992.70;107161;1267;25400;-48
2023/03/15 09:28:13;;;;;;;3.40;1.50;;;;;;;12.70;59.01;100989.42;107065;1267;25366;-48
2023/03/15 09:30:43;;;;;;;3.50;1.60;;;;;;;12.77;58.94;100987.67;107172;1267;25578;-48
2023/03/15 09:33:13;;;;;;;3.90;1.60;;;;;;;12.84;58.86;100983.30;107011;1267;25369;-48
2023/03/15 09:35:46;;;;;;;3.90;1.40;;;;;;;12.92;58.80;100982.36;107054;1267;25421;-48
2023/03/15 09:38:13;;;;;;;1.60;1.30;;;;;;;13.01;58.74;100983.70;107188;1267;25339;-48
2023/03/15 09:40:44;;;;;;;3.00;1.30;;;;;;;13.11;58.66;100979.44;107035;1272;23919;-48
2023/03/15 09:43:20;;;;;;;3.60;1.00;;;;;;;13.20;58.42;100980.75;107117;1267;22521;-48
2023/03/15 09:45:52;;;;;;;3.00;1.30;;;;;;;13.29;58.11;100984.14;107110;1268;26545;-48
2023/03/15 09:48:27;;;;;;;4.80;1.70;;;;;;;13.37;57.96;100987.92;106999;1268;25353;-48
2023/03/15 09:54:49;;;;;;;4.10;1.70;;;;;;;13.50;57.82;100980.02;103812;1298;545070;-49
2023/03/15 09:57:22;;;;;;;3.30;1.40;;;;;;;13.51;57.69;100973.90;105906;1282;22550;-49
2023/03/15 09:59:52;;;;;;;3.80;1.70;;;;;;;13.51;57.53;100970.05;105956;1281;23922;-49
2023/03/15 10:02:23;;;;;;;2.20;1.30;;;;;;;13.51;57.39;100966.20;106017;1280;25421;-49
2023/03/15 10:04:55;;;;;;;2.70;1.40;;;;;;;13.50;57.40;100968.53;105959;1281;24387;-49
2023/03/15 10:07:23;;;;;;;;;;;;;;;13.46;57.43;100963.77;106254;1272;222910;-49
2023/03/15 10:09:51;;;;;;;4.70;1.80;;;;;;;13.42;57.54;100955.17;106661;1256;24322;-48
2023/03/15 10:12:26;;;;;;;3.70;1.60;;;;;;;13.36;57.58;100957.79;106741;1272;25360;-48
2023/03/15 10:15:17;;;;;;;5.40;2.00;;;;;;;13.31;57.86;100950.81;106788;1271;25339;-48
2023/03/15 10:17:52;;;;;;;6.40;1.60;;;;;;;13.25;58.26;100948.02;106784;1271;25409;-49
2023/03/15 10:20:35;;;;;;;3.00;1.50;;;;;;;13.21;58.47;100944.34;106623;1271;24246;-48
2023/03/15 10:23:15;;;;;;;3.20;1.40;;;;;;;13.15;58.59;100935.96;106448;1278;22527;-49
2023/03/15 10:25:45;;;;;;;3.50;1.60;;;;;;;13.10;58.79;100932.27;106699;1272;22587;-49
2023/03/15 10:28:18;;;;;;;2.80;1.50;;;;;;;13.03;58.99;100929.11;106661;1272;24245;-49
2023/03/15 10:30:51;;;;;;;1.80;1.30;;;;;;;12.97;59.22;100927.39;106695;1272;25584;-49
2023/03/15 10:33:26;;;;;;;6.20;1.70;;;;;;;12.92;59.61;100925.27;106775;1271;22794;-49
2023/03/15 10:35:54;;;;;;;3.30;1.60;;;;;;;12.87;59.98;100922.95;106635;1272;25507;-49
2023/03/15 10:38:38;;;;;;;5.90;1.90;;;;;;;12.82;60.14;100923.61;106571;1273;22554;-49
2023/03/15 10:41:06;;;;;;;3.40;2.00;;;;;;;12.77;60.39;100923.77;106725;1275;26552;-49
2023/03/15 10:43:38;;;;;;;2.80;1.60;;;;;;;12.73;60.64;100914.86;106805;1272;22650;-49
2023/03/15 10:46:12;;;;;;;3.30;1.40;;;;;;;12.69;60.71;100914.80;106448;1277;22656;-49
2023/03/15 10:49:14;;;;;;;5.30;1.80;;;;;;;12.63;60.83;100915.65;106540;1272;23874;-50
2023/03/15 10:51:46;;;;;;;1.60;1.40;;;;;;;12.56;61.09;100918.11;106764;1272;25334;-49
2023/03/15 10:54:16;;;;;;;4.60;1.70;;;;;;;12.50;61.35;100918.27;106816;1271;24304;-49
2023/03/15 10:57:12;;;;;;;2.80;1.40;;;;;;;12.43;61.61;100920.89;106765;1271;25342;-50
2023/03/15 11:00:04;;;;;;;3.00;1.50;;;;;;;12.36;61.87;100920.73;106572;1272;23910;-49
2023/03/15 11:02:36;;;;;;;4.40;2.00;;;;;;;12.30;62.20;100924.54;106686;1272;25369;-49
2023/03/15 11:05:15;;;;;;;2.90;1.70;;;;;;;12.25;62.45;100923.99;106738;1271;22533;-49
2023/03/15 11:07:55;;;;;;;4.00;1.80;;;;;;;12.21;62.55;100924.23;106018;1275;1003534;-49
2023/03/15 11:10:25;;;;;;;2.50;2.00;;;;;;;12.17;62.86;100918.45;106855;1272;22543;-50
2023/03/15 11:13:13;;;;;;;2.90;1.70;;;;;;;12.13;63.01;100921.67;106781;1273;24247;-49
2023/03/15 11:16:03;;;;;;;5.10;2.00;;;;;;;12.09;63.37;100924.56;106746;1272;25456;-49
2023/03/15 11:18:36;;;;;;;4.00;1.60;;;;;;;12.05;63.60;100919.62;106854;1275;24221;-49
2023/03/15 11:21:07;;;;;;;2.20;1.60;;;;;;;12.02;63.79;100918.83;106705;1272;22994;-49
2023/03/15 11:23:38;;;;;;;5.80;2.00;;;;;;;11.99;64.06;100919.77;106767;1272;25524;-49
2023/03/15 11:26:12;;;;;;;2.60;1.60;;;;;;;11.97;64.35;100917.39;106905;1272;22818;-49
2023/03/15 11:28:56;;;;;;;2.40;1.60;;;;;;;12.00;64.32;100916.81;106738;1271;25345;-49
2023/03/15 11:31:27;;;;;;;3.60;1.50;;;;;;;12.03;64.39;100916.20;106746;1272;22618;-49
2023/03/15 11:33:58;;;;;;;2.20;1.50;;;;;;;12.03;64.53;100920.05;106830;1273;22525;-50
2023/03/15 11:36:30;;;;;;;3.90;1.90;;;;;;;12.03;64.43;100915.87;106727;1275;24225;-49
2023/03/15 11:38:59;;;;;;;4.20;2.00;;;;;;;12.01;64.54;100911.55;106678;1272;25446;-49
2023/03/15 11:45:00;;;;;;;4.70;2.60;;;;;;;12.01;64.84;100904.79;104153;1300;545144;-50
2023/03/15 11:47:47;;;;;;;2.50;2.20;;;;;;;11.96;65.00;100899.52;105881;1289;25387;-50
2023/03/15 11:50:16;;;;;;;4.10;2.60;;;;;;;11.95;65.12;100895.89;105963;1283;25339;-49